Airfield :
LOGIN :

Register | Disclaimer

   EN    FR    IT 

 










Legend :    VFR   Marginal VFR   IFR   Intensive IFR   Very Intensive IFR
Visi :
Ceiling :
>= 8 km
>= 3000ft
5 to 8 km
1000 to 3000 ft
1500m to 5 km
500 to 1000 ft
800 to 1500m
200 to 500 ft
< 800m
< 200 ft
Symbols :   Thunderstorms  Fog  Heavy snow  Heavy precipitations  Wind > 20 kt
SIGMETs :     Misc.  Thunderstorms  Icing  Turbulence  Mountain Waves  Volcanic Ashes







- Airport Elevation : 215 ft
- IATA code : ABZ
- Download approach charts


EGPD - Aberdeen / Dyce

CURRENT METAR :
  • 191050Z 15001KT 2600 BR BKN003 06/05 Q1015

EXPIRED METARs :
  • 191020Z VRB01KT 2200 BR OVC003 05/05 Q1015 TEMPO RADZ
  • 190950Z AUTO 05002KT 2400 BR BKN005/// BKN014/// OVC047/// //////TCU 05/05 Q1015
  • 190920Z 04002KT 2300 BR BKN014 05/04 Q1015 TEMPO RADZ
  • 190850Z 01002KT 2300 BR BKN012 05/04 Q1015 TEMPO RADZ
  • 190820Z 36003KT 3000 BR FEW017 05/04 Q1014

TAF TAF EGPD
Valid from the 19 at 06:00 until the 20 at 06:00 UTC


190503Z 1906/2006 16006KT 9999 SCT020
TEMPO 1906/1920 6000 -RADZ BKN008
PROB40
TEMPO 1906/1918 2000 RADZ BR BKN001
TEMPO 1923/2004 6000 RA BKN012
BECMG 2000/2003 30010KT
No reported NOTAMs for that airfield.



MET'MAP, your aeronautical weather chart ! - Copyright ORBIFLY December 2007 - Disclaimer

ORBIFLY MET'MAP TEAM :

Programming & Development : Alexandra Zaïnal
Concept & Development : Baudouin d'Aumeries
Co-Development & Prog : Marc-Olivier Méhu
Technical & hardware support : Manuel Goepfert

Contact : metmap@orbifly.com




SOURCES & CREDITS :

   NOAA